Time;durP1;ratioP1;P1;durP2;ratioP2;P2;SDS_P1;SDS_P2;PMS_P1;PMS_P2;Temp;Humidity;BMP_temperature;BMP_pressure;BME280_temperature;BME280_humidity;BME280_pressure;Samples;Min_cycle;Max_cycle;Signal;HPM_P1;HPM_P2
2021/06/04 00:01:12;;;;;;;7.87;6.50;;;20.40;88.20;;;;;;5053289;28;20232;-75
2021/06/04 00:03:38;;;;;;;9.50;6.23;;;20.40;88.50;;;;;;5053836;28;20170;-78
2021/06/04 00:06:05;;;;;;;7.47;6.33;;;20.40;88.60;;;;;;5054694;28;20976;-77
2021/06/04 00:08:31;;;;;;;7.47;6.77;;;20.50;88.70;;;;;;5054790;28;20200;-78
2021/06/04 00:11:01;;;;;;;7.60;5.73;;;20.40;88.80;;;;;;5055881;28;20437;-77
2021/06/04 00:13:36;;;;;;;9.73;6.60;;;20.40;88.90;;;;;;5056777;28;20423;-77
2021/06/04 00:16:16;;;;;;;8.10;6.60;;;20.40;89.10;;;;;;5057666;28;20410;-77
2021/06/04 00:18:43;;;;;;;12.70;7.00;;;20.40;89.20;;;;;;5057465;28;20468;-75
2021/06/04 00:21:15;;;;;;;7.53;6.00;;;20.40;89.50;;;;;;5053722;28;20434;-78
2021/06/04 00:23:41;;;;;;;8.47;6.57;;;20.30;89.30;;;;;;5051686;28;20483;-77
2021/06/04 00:26:08;;;;;;;10.53;6.27;;;20.30;89.40;;;;;;5052100;28;20479;-77
2021/06/04 00:28:34;;;;;;;7.50;5.67;;;20.30;89.50;;;;;;5051767;28;20546;-76
2021/06/04 00:31:02;;;;;;;7.63;6.20;;;20.30;89.60;;;;;;5052000;28;20468;-77
2021/06/04 00:33:28;;;;;;;6.83;5.63;;;20.30;89.90;;;;;;5053076;28;20404;-77
2021/06/04 00:35:55;;;;;;;6.83;6.07;;;20.30;89.90;;;;;;5052226;28;20453;-78
2021/06/04 00:38:20;;;;;;;9.13;6.27;;;20.30;89.90;;;;;;5050501;28;20503;-77
2021/06/04 00:40:52;;;;;;;6.17;5.57;;;20.20;89.80;;;;;;5050719;28;21167;-77
2021/06/04 00:43:19;;;;;;;10.57;6.40;;;20.20;89.90;;;;;;5035360;28;20449;-77
2021/06/04 00:45:51;;;;;;;8.77;5.47;;;20.20;89.90;;;;;;5052864;28;20929;-77
2021/06/04 00:48:19;;;;;;;6.10;5.50;;;20.20;89.70;;;;;;5036829;28;20452;-76
2021/06/04 00:51:11;;;;;;;6.03;5.37;;;20.20;89.80;;;;;;5053894;28;20441;-77
2021/06/04 00:53:39;;;;;;;7.00;5.57;;;20.20;90.00;;;;;;5051720;28;20439;-77
2021/06/04 00:56:07;;;;;;;7.30;6.37;;;20.20;89.80;;;;;;5051399;28;21034;-77
2021/06/04 00:58:39;;;;;;;7.47;5.23;;;20.20;89.70;;;;;;5052136;28;20408;-77
2021/06/04 01:01:06;;;;;;;8.37;6.90;;;20.20;89.70;;;;;;5049982;28;20436;-76
2021/06/04 01:03:35;;;;;;;7.27;6.57;;;20.10;89.60;;;;;;5052201;28;20501;-77
2021/06/04 01:06:22;;;;;;;8.77;6.10;;;20.10;89.70;;;;;;5052464;28;20416;-77
2021/06/04 01:09:41;;;;;;;10.63;7.70;;;20.10;90.00;;;;;;5055457;28;20452;-78
2021/06/04 01:12:38;;;;;;;7.50;6.70;;;20.00;90.10;;;;;;5007775;28;20451;-77
2021/06/04 01:15:17;;;;;;;7.07;6.37;;;20.00;90.40;;;;;;5052106;28;20405;-77
2021/06/04 01:17:45;;;;;;;6.93;5.90;;;19.90;90.40;;;;;;5063619;28;20422;-76
2021/06/04 01:20:52;;;;;;;8.13;6.70;;;19.90;90.60;;;;;;5063828;28;20512;-76
2021/06/04 01:23:26;;;;;;;10.23;6.93;;;19.90;90.70;;;;;;5048588;28;20611;-76
2021/06/04 01:26:02;;;;;;;7.00;6.30;;;19.80;90.80;;;;;;5064285;28;20443;-76
2021/06/04 01:28:38;;;;;;;7.53;6.83;;;19.80;90.90;;;;;;5057047;28;20508;-77
2021/06/04 01:31:37;;;;;;;10.10;7.40;;;19.80;91.00;;;;;;5051601;28;20432;-78
2021/06/04 01:34:15;;;;;;;8.47;7.10;;;19.80;91.10;;;;;;5052643;28;20415;-78
2021/06/04 01:37:04;;;;;;;11.00;8.03;;;19.80;91.20;;;;;;5052711;28;20435;-78
2021/06/04 01:39:43;;;;;;;12.63;7.37;;;19.70;91.30;;;;;;5051419;28;20428;-77
2021/06/04 01:42:17;;;;;;;10.80;7.40;;;19.70;91.40;;;;;;5051378;28;20602;-78
2021/06/04 01:44:49;;;;;;;8.27;7.40;;;19.70;91.60;;;;;;5049860;28;20421;-78
2021/06/04 01:47:20;;;;;;;8.13;7.20;;;19.70;91.50;;;;;;5051693;28;20455;-78
2021/06/04 01:49:49;;;;;;;10.47;7.73;;;19.70;91.60;;;;;;5052934;28;20435;-78
2021/06/04 01:52:26;;;;;;;13.57;8.40;;;19.60;91.60;;;;;;5038074;28;20522;-78
2021/06/04 01:55:17;;;;;;;8.80;6.63;;;19.60;91.70;;;;;;5054950;28;20908;-78
2021/06/04 01:57:53;;;;;;;7.70;6.73;;;19.50;91.80;;;;;;5057141;28;20507;-77
2021/06/04 02:00:39;;;;;;;8.90;7.67;;;19.50;91.80;;;;;;5058311;28;20430;-79
2021/06/04 02:03:14;;;;;;;8.03;7.10;;;19.60;92.00;;;;;;5057264;28;20959;-78
2021/06/04 02:05:57;;;;;;;8.90;7.50;;;19.50;92.00;;;;;;5055765;28;20454;-77
2021/06/04 02:08:33;;;;;;;8.20;7.40;;;19.50;92.10;;;;;;5038666;28;20459;-77
2021/06/04 02:11:00;;;;;;;8.93;7.47;;;19.50;92.10;;;;;;5057193;28;20420;-77
2021/06/04 02:13:28;;;;;;;8.20;7.37;;;19.50;92.10;;;;;;5057493;28;20397;-77
2021/06/04 02:16:47;;;;;;;8.50;7.70;;;19.50;92.10;;;;;;5063444;28;20481;-77
2021/06/04 02:19:42;;;;;;;12.47;7.90;;;19.40;92.10;;;;;;5052978;28;20419;-77
2021/06/04 02:22:34;;;;;;;9.53;7.37;;;19.40;92.20;;;;;;5053237;28;20863;-77
2021/06/04 02:25:11;;;;;;;10.73;8.13;;;19.40;92.40;;;;;;5067833;28;20419;-79
2021/06/04 02:27:40;;;;;;;9.57;8.77;;;19.30;92.40;;;;;;5072581;28;20452;-77
2021/06/04 02:30:31;;;;;;;8.77;7.93;;;19.30;92.50;;;;;;5058579;28;20428;-77
2021/06/04 02:33:10;;;;;;;10.33;8.90;;;19.30;92.60;;;;;;5061673;28;20397;-76
2021/06/04 02:35:46;;;;;;;12.27;8.77;;;19.20;92.70;;;;;;5066955;28;20432;-76
2021/06/04 02:38:35;;;;;;;9.37;8.40;;;19.20;92.90;;;;;;5071234;28;20416;-76
2021/06/04 02:41:25;;;;;;;11.27;8.50;;;19.10;93.00;;;;;;5073593;28;20420;-77
2021/06/04 02:43:57;;;;;;;10.93;8.40;;;19.20;93.10;;;;;;5055624;28;20416;-77
2021/06/04 02:46:30;;;;;;;11.17;9.30;;;19.20;93.00;;;;;;5068358;28;20446;-78
2021/06/04 02:48:57;;;;;;;10.60;7.90;;;19.20;92.90;;;;;;5043687;28;20483;-78
2021/06/04 02:51:30;;;;;;;10.40;7.90;;;19.30;92.90;;;;;;5058461;28;20931;-78
2021/06/04 02:54:09;;;;;;;8.97;8.07;;;19.20;92.90;;;;;;5054329;28;21036;-77
2021/06/04 02:56:45;;;;;;;9.30;7.60;;;19.20;92.90;;;;;;5057740;28;20419;-78
2021/06/04 02:59:28;;;;;;;13.30;8.10;;;19.20;93.30;;;;;;5045856;28;20411;-76
2021/06/04 03:01:59;;;;;;;10.30;7.57;;;19.20;93.30;;;;;;5060140;28;20414;-76
2021/06/04 03:04:30;;;;;;;8.83;7.90;;;19.20;93.00;;;;;;5058672;28;20424;-75
2021/06/04 03:07:00;;;;;;;12.60;7.40;;;19.20;93.10;;;;;;5056546;28;20455;-76
2021/06/04 03:09:36;;;;;;;9.53;7.43;;;19.20;93.00;;;;;;5036291;28;20789;-77
2021/06/04 03:12:16;;;;;;;9.87;8.20;;;19.20;92.80;;;;;;5052026;28;20416;-77
2021/06/04 03:14:43;;;;;;;8.40;7.47;;;19.20;92.70;;;;;;5055129;28;20428;-76
2021/06/04 03:17:10;;;;;;;12.63;8.50;;;19.30;92.70;;;;;;5054318;28;20420;-77
2021/06/04 03:19:41;;;;;;;10.03;9.03;;;19.20;92.70;;;;;;5052953;28;20424;-77
2021/06/04 03:22:22;;;;;;;9.57;8.17;;;19.20;92.70;;;;;;5054331;28;20925;-76
2021/06/04 03:24:50;;;;;;;10.07;7.60;;;19.20;92.70;;;;;;5053541;28;21092;-78
2021/06/04 03:27:18;;;;;;;9.57;8.17;;;19.20;92.80;;;;;;5053933;28;20444;-76
2021/06/04 03:29:49;;;;;;;9.70;8.80;;;19.20;92.80;;;;;;5052877;28;20833;-77
2021/06/04 03:32:16;;;;;;;11.07;7.90;;;19.20;92.80;;;;;;5036417;28;20412;-78
2021/06/04 03:34:45;;;;;;;9.23;8.27;;;19.20;92.80;;;;;;5055006;28;20496;-78
2021/06/04 03:37:12;;;;;;;11.63;7.80;;;19.20;92.70;;;;;;5052599;28;20427;-77
2021/06/04 03:39:43;;;;;;;10.30;8.10;;;19.20;92.80;;;;;;5053693;28;20926;-77
2021/06/04 03:42:20;;;;;;;16.60;8.60;;;19.20;92.70;;;;;;5054738;28;20924;-80
2021/06/04 03:44:48;;;;;;;11.40;9.10;;;19.10;92.80;;;;;;5051531;28;20424;-77
2021/06/04 03:47:15;;;;;;;11.03;8.60;;;19.10;92.80;;;;;;5053253;28;20449;-79
2021/06/04 03:49:44;;;;;;;11.27;8.37;;;19.10;92.80;;;;;;5051963;28;20890;-77
2021/06/04 03:52:13;;;;;;;12.03;9.13;;;19.10;92.90;;;;;;5054065;28;20424;-76
2021/06/04 03:54:46;;;;;;;12.43;9.33;;;19.10;93.00;;;;;;5051513;28;20424;-78
2021/06/04 03:57:15;;;;;;;11.07;9.63;;;19.10;93.10;;;;;;5053660;28;20407;-77
2021/06/04 03:59:43;;;;;;;14.27;8.87;;;19.10;93.10;;;;;;5052696;28;20526;-77
2021/06/04 04:02:12;;;;;;;9.30;8.30;;;19.10;92.90;;;;;;5053050;28;20510;-78
2021/06/04 04:04:38;;;;;;;12.00;9.00;;;19.10;92.90;;;;;;5053100;28;20415;-76
2021/06/04 04:07:04;;;;;;;9.57;8.67;;;19.10;92.90;;;;;;5052355;28;20453;-79
2021/06/04 04:09:30;;;;;;;15.43;9.00;;;19.10;93.00;;;;;;5053786;28;20179;-77
2021/06/04 04:11:56;;;;;;;9.63;8.63;;;19.10;93.00;;;;;;5058070;28;20419;-75
2021/06/04 04:14:24;;;;;;;13.23;8.60;;;19.10;92.90;;;;;;5054053;28;20166;-75
2021/06/04 04:16:49;;;;;;;14.73;9.80;;;19.10;92.90;;;;;;5057406;28;20465;-76
2021/06/04 04:19:19;;;;;;;15.40;10.60;;;19.10;92.80;;;;;;5056631;28;20869;-77
2021/06/04 04:21:46;;;;;;;17.37;9.60;;;19.20;93.00;;;;;;5062282;28;20489;-77
2021/06/04 04:24:16;;;;;;;12.53;10.47;;;19.20;92.80;;;;;;5058703;28;20412;-78
2021/06/04 04:26:44;;;;;;;11.40;9.10;;;19.20;92.80;;;;;;5052526;28;20492;-77
2021/06/04 04:29:10;;;;;;;12.00;10.20;;;19.20;93.20;;;;;;5054868;28;20454;-77
2021/06/04 04:31:41;;;;;;;13.83;10.50;;;19.20;92.60;;;;;;5064501;28;20404;-78
2021/06/04 04:34:08;;;;;;;9.93;8.53;;;19.20;92.60;;;;;;5061534;28;20405;-77
2021/06/04 04:36:49;;;;;;;11.50;9.20;;;19.30;92.50;;;;;;5060981;28;20416;-77
2021/06/04 04:39:19;;;;;;;16.30;10.97;;;19.30;92.60;;;;;;5062589;28;20413;-78
2021/06/04 04:41:46;;;;;;;11.90;9.80;;;19.20;92.40;;;;;;5054974;28;20418;-77
2021/06/04 04:44:13;;;;;;;11.37;9.20;;;19.20;92.50;;;;;;5055830;28;20489;-77
2021/06/04 04:46:40;;;;;;;12.67;9.90;;;19.20;92.50;;;;;;5058207;28;20408;-76
2021/06/04 04:49:05;;;;;;;11.33;9.77;;;19.20;92.50;;;;;;5056749;28;20899;-76
2021/06/04 04:51:36;;;;;;;11.13;9.13;;;19.20;92.60;;;;;;5052616;28;20464;-78
2021/06/04 04:54:04;;;;;;;13.27;10.07;;;19.20;92.50;;;;;;5051731;28;20197;-75
2021/06/04 04:56:29;;;;;;;11.03;9.77;;;19.20;92.50;;;;;;5051366;28;20617;-76
2021/06/04 04:58:55;;;;;;;11.27;10.07;;;19.20;92.30;;;;;;5053480;28;20490;-76
2021/06/04 05:01:22;;;;;;;10.20;9.20;;;19.20;92.50;;;;;;5063768;28;20216;-76
2021/06/04 05:03:47;;;;;;;9.83;8.90;;;19.20;92.50;;;;;;5058097;28;20170;-78
2021/06/04 05:06:13;;;;;;;10.00;9.00;;;19.20;92.50;;;;;;5065654;28;20416;-76
2021/06/04 05:08:40;;;;;;;11.23;10.10;;;19.20;92.40;;;;;;5060643;28;20205;-77
2021/06/04 05:11:06;;;;;;;12.87;9.93;;;19.20;92.50;;;;;;5066481;28;20432;-77
2021/06/04 05:13:33;;;;;;;10.20;9.07;;;19.20;92.30;;;;;;5074786;28;20435;-76
2021/06/04 05:16:03;;;;;;;10.63;9.53;;;19.20;92.40;;;;;;5054628;28;20456;-76
2021/06/04 05:18:30;;;;;;;11.80;10.50;;;19.20;92.40;;;;;;5052755;28;20404;-78
2021/06/04 05:20:56;;;;;;;12.83;9.27;;;19.30;92.30;;;;;;5054206;28;20426;-76
2021/06/04 05:23:21;;;;;;;13.10;10.10;;;19.40;92.20;;;;;;5059913;28;20445;-77
2021/06/04 05:25:49;;;;;;;13.80;11.00;;;19.40;92.10;;;;;;5059389;28;20777;-76
2021/06/04 05:28:19;;;;;;;14.73;10.47;;;19.50;91.90;;;;;;5057623;28;20696;-77
2021/06/04 05:30:46;;;;;;;11.87;9.90;;;19.60;91.70;;;;;;5055366;28;20491;-77
2021/06/04 05:33:15;;;;;;;11.03;9.67;;;19.70;91.20;;;;;;5057061;28;20420;-77
2021/06/04 05:35:42;;;;;;;12.83;10.37;;;19.80;91.00;;;;;;5054243;28;20409;-77
2021/06/04 05:38:09;;;;;;;12.73;9.67;;;19.90;90.70;;;;;;5056996;28;20435;-78
2021/06/04 05:40:38;;;;;;;17.00;12.10;;;20.00;90.80;;;;;;5054772;28;20454;-76
2021/06/04 05:43:08;;;;;;;13.90;11.83;;;20.20;90.50;;;;;;5054919;28;20441;-76
2021/06/04 05:45:36;;;;;;;12.30;10.30;;;20.40;89.90;;;;;;5053655;28;20423;-77
2021/06/04 05:48:03;;;;;;;12.73;9.30;;;20.70;89.20;;;;;;5055022;28;20739;-79
2021/06/04 05:50:35;;;;;;;13.30;11.07;;;20.90;87.80;;;;;;5053469;28;20444;-76
2021/06/04 05:53:03;;;;;;;10.73;9.73;;;21.00;87.00;;;;;;5055142;28;20819;-78
2021/06/04 05:55:30;;;;;;;11.03;9.60;;;21.30;86.20;;;;;;5037416;28;20459;-77
2021/06/04 05:57:57;;;;;;;11.13;9.33;;;21.60;83.60;;;;;;5057232;28;20929;-77
2021/06/04 06:00:35;;;;;;;11.33;10.13;;;22.00;82.50;;;;;;5055904;28;20538;-77
2021/06/04 06:03:03;;;;;;;13.83;9.00;;;22.70;80.90;;;;;;5055505;28;20419;-78
2021/06/04 06:05:28;;;;;;;9.07;8.17;;;23.50;76.80;;;;;;5055542;28;20411;-78
2021/06/04 06:07:54;;;;;;;9.20;7.50;;;24.10;74.10;;;;;;5056166;28;20439;-77
2021/06/04 06:10:23;;;;;;;11.00;9.10;;;24.70;71.50;;;;;;5054330;28;20201;-76
2021/06/04 06:12:50;;;;;;;9.70;8.70;;;25.20;69.70;;;;;;5056040;28;20906;-77
2021/06/04 06:15:16;;;;;;;11.00;9.10;;;25.80;68.00;;;;;;5055251;28;20568;-80
2021/06/04 06:17:42;;;;;;;8.70;7.80;;;26.40;62.50;;;;;;5037760;28;20491;-75
2021/06/04 06:20:12;;;;;;;10.57;8.70;;;26.70;61.10;;;;;;5062663;28;20432;-76
2021/06/04 06:22:37;;;;;;;10.83;8.73;;;26.40;61.40;;;;;;5061371;28;20491;-76
2021/06/04 06:25:15;;;;;;;11.50;9.33;;;26.10;62.20;;;;;;5055944;28;20464;-77
2021/06/04 06:27:41;;;;;;;15.87;9.37;;;25.70;63.00;;;;;;5055162;28;20500;-77
2021/06/04 06:30:13;;;;;;;10.47;9.27;;;25.40;64.10;;;;;;5055674;28;20481;-79
2021/06/04 06:32:39;;;;;;;10.80;9.07;;;25.10;64.60;;;;;;5058326;28;20404;-78
2021/06/04 06:35:06;;;;;;;11.17;10.00;;;24.70;65.80;;;;;;5057482;28;20424;-77
2021/06/04 06:37:31;;;;;;;13.57;9.80;;;24.50;67.60;;;;;;5058539;28;20234;-77
2021/06/04 06:39:57;;;;;;;12.57;10.27;;;24.30;67.40;;;;;;5056870;28;20472;-76
2021/06/04 06:42:23;;;;;;;12.63;11.00;;;24.00;68.50;;;;;;5057273;28;20166;-76
2021/06/04 06:44:49;;;;;;;11.20;9.70;;;23.80;69.70;;;;;;5059292;28;20190;-76
2021/06/04 06:47:14;;;;;;;12.97;10.47;;;23.70;71.00;;;;;;5053981;28;20269;-77
2021/06/04 06:49:40;;;;;;;13.17;9.77;;;23.90;70.90;;;;;;5054874;28;20228;-76
2021/06/04 06:52:09;;;;;;;12.13;9.20;;;24.40;70.00;;;;;;5054748;28;20182;-79
2021/06/04 06:54:36;;;;;;;11.17;9.50;;;25.20;66.90;;;;;;5057876;28;20166;-75
2021/06/04 06:57:02;;;;;;;10.20;8.70;;;25.60;65.60;;;;;;5072395;28;20489;-78
2021/06/04 06:59:29;;;;;;;13.67;9.70;;;26.20;63.80;;;;;;5060053;28;20448;-78
2021/06/04 07:01:57;;;;;;;9.03;8.13;;;27.40;59.50;;;;;;5054779;28;20427;-77
2021/06/04 07:04:24;;;;;;;9.53;8.53;;;27.80;57.90;;;;;;5053257;28;20428;-77
2021/06/04 07:06:50;;;;;;;13.60;9.80;;;27.60;57.50;;;;;;5055605;28;20755;-76
2021/06/04 07:09:17;;;;;;;9.90;8.80;;;27.20;58.00;;;;;;5053614;28;20444;-78
2021/06/04 07:11:50;;;;;;;12.07;10.80;;;27.00;58.60;;;;;;5053224;28;20416;-78
2021/06/04 07:14:16;;;;;;;11.80;9.73;;;27.00;58.40;;;;;;5053369;28;20435;-77
2021/06/04 07:16:42;;;;;;;10.40;8.80;;;26.90;58.70;;;;;;5057210;28;20483;-77
2021/06/04 07:19:08;;;;;;;12.13;9.10;;;27.30;58.50;;;;;;5058445;28;20450;-77
2021/06/04 07:21:37;;;;;;;12.87;9.20;;;28.00;57.30;;;;;;5057596;28;20420;-76
2021/06/04 07:24:03;;;;;;;14.93;10.03;;;28.60;55.00;;;;;;5055352;28;20643;-76
2021/06/04 07:26:29;;;;;;;10.20;9.20;;;29.80;54.10;;;;;;5058326;28;20424;-77
2021/06/04 07:29:00;;;;;;;10.10;8.63;;;30.70;51.60;;;;;;5058123;28;20547;-77
2021/06/04 07:31:27;;;;;;;11.53;9.90;;;30.80;50.00;;;;;;5040315;28;20425;-78
2021/06/04 07:33:57;;;;;;;10.93;9.80;;;30.60;50.40;;;;;;5045139;28;20424;-77
2021/06/04 07:36:28;;;;;;;13.20;10.63;;;30.00;50.80;;;;;;5055677;28;20424;-76
2021/06/04 07:38:55;;;;;;;10.97;9.43;;;29.30;52.00;;;;;;5039863;28;20467;-78
2021/06/04 07:41:20;;;;;;;13.07;9.57;;;28.50;53.10;;;;;;5056876;28;20511;-77
2021/06/04 07:43:48;;;;;;;13.13;10.10;;;28.00;54.80;;;;;;5062879;28;20415;-77
2021/06/04 07:46:18;;;;;;;10.93;9.83;;;27.70;55.60;;;;;;5058380;28;20166;-77
2021/06/04 07:48:44;;;;;;;14.60;11.03;;;27.40;56.40;;;;;;5061415;28;20447;-77
2021/06/04 07:51:13;;;;;;;12.63;11.33;;;27.20;56.70;;;;;;5060022;28;20999;-79
2021/06/04 07:53:39;;;;;;;16.63;10.80;;;27.00;57.00;;;;;;5058999;28;20174;-77
2021/06/04 07:56:07;;;;;;;10.70;9.60;;;27.40;57.20;;;;;;5059007;28;20408;-79
2021/06/04 07:58:33;;;;;;;14.43;9.57;;;28.60;55.40;;;;;;5059723;28;20440;-78
2021/06/04 08:01:02;;;;;;;11.77;9.20;;;30.40;52.10;;;;;;5062375;28;20470;-78
2021/06/04 08:03:28;;;;;;;13.00;9.20;;;32.40;48.30;;;;;;5059488;28;20214;-78
2021/06/04 08:05:57;;;;;;;13.30;10.77;;;33.70;45.40;;;;;;5056427;28;20408;-78
2021/06/04 08:08:23;;;;;;;12.40;10.20;;;34.70;42.20;;;;;;5057125;28;20459;-77
2021/06/04 08:10:50;;;;;;;10.63;9.53;;;35.30;41.00;;;;;;5057928;28;20487;-79
2021/06/04 08:13:19;;;;;;;10.30;8.77;;;36.00;39.90;;;;;;5058202;28;20477;-78
2021/06/04 08:15:50;;;;;;;9.90;8.90;;;36.30;39.40;;;;;;5059487;28;20493;-77
2021/06/04 08:18:17;;;;;;;11.93;9.80;;;37.00;37.60;;;;;;5062533;28;20458;-76
2021/06/04 08:20:43;;;;;;;10.43;9.50;;;37.40;36.60;;;;;;5062067;28;20430;-77
2021/06/04 08:23:13;;;;;;;10.83;9.77;;;37.90;35.30;;;;;;5062554;28;20408;-77
2021/06/04 08:25:54;;;;;;;11.27;10.27;;;38.80;34.90;;;;;;5064555;28;20157;-77
2021/06/04 08:28:21;;;;;;;10.40;9.40;;;38.00;33.60;;;;;;5063342;28;20455;-78
2021/06/04 08:30:48;;;;;;;11.20;10.00;;;36.10;36.70;;;;;;5066642;28;20443;-77
2021/06/04 08:33:23;;;;;;;47.97;43.00;;;34.30;39.00;;;;;;5066526;28;20419;-78
2021/06/04 08:35:49;;;;;;;13.07;11.67;;;32.90;41.80;;;;;;5058085;28;20390;-77
2021/06/04 08:38:15;;;;;;;18.53;13.40;;;32.20;43.40;;;;;;5058833;28;20428;-76
2021/06/04 08:40:41;;;;;;;14.33;10.70;;;32.00;43.90;;;;;;5060383;28;20505;-77
2021/06/04 08:43:48;;;;;;;10.03;9.00;;;32.00;44.10;;;;;;5061770;28;20170;-77
2021/06/04 08:46:20;;;;;;;15.43;9.60;;;33.00;43.30;;;;;;5063341;28;20400;-77
2021/06/04 08:49:00;;;;;;;13.47;10.30;;;35.00;40.40;;;;;;5061758;28;20453;-77
2021/06/04 08:51:38;;;;;;;15.87;10.83;;;36.70;37.40;;;;;;5060868;28;20457;-77
2021/06/04 08:54:29;;;;;;;11.87;10.67;;;37.70;35.80;;;;;;5059594;28;20403;-77
2021/06/04 08:57:10;;;;;;;13.87;12.47;;;38.60;33.60;;;;;;5054583;28;20411;-77
2021/06/04 08:59:37;;;;;;;11.82;10.73;;;38.70;33.40;;;;;;5055055;28;20447;-78
2021/06/04 09:02:22;;;;;;;12.77;11.57;;;38.50;33.70;;;;;;5043349;28;20527;-80
2021/06/04 09:05:01;;;;;;;11.45;10.35;;;39.10;32.00;;;;;;5059637;28;20194;-77
2021/06/04 09:07:34;;;;;;;18.77;11.25;;;39.70;31.00;;;;;;5044547;28;20185;-77
2021/06/04 09:10:22;;;;;;;13.43;12.05;;;40.90;29.70;;;;;;5046910;28;20231;-78
2021/06/04 09:12:54;;;;;;;14.10;12.80;;;41.50;27.50;;;;;;5046127;28;20273;-78
2021/06/04 09:15:28;;;;;;;12.88;11.55;;;40.80;28.10;;;;;;5048075;28;20193;-77
2021/06/04 09:18:17;;;;;;;12.55;11.35;;;40.70;28.80;;;;;;5063376;28;20216;-78
2021/06/04 09:20:51;;;;;;;13.13;11.73;;;40.70;28.80;;;;;;5047278;28;20553;-78
2021/06/04 09:23:26;;;;;;;15.77;13.20;;;41.00;28.30;;;;;;5046012;28;20531;-77
2021/06/04 09:25:52;;;;;;;12.63;11.50;;;41.30;26.70;;;;;;5048571;28;20682;-78
2021/06/04 09:28:22;;;;;;;12.65;11.05;;;41.10;27.40;;;;;;5048268;28;20216;-77
2021/06/04 09:31:00;;;;;;;15.20;13.88;;;41.40;26.80;;;;;;5048521;28;20177;-78
2021/06/04 09:33:42;;;;;;;13.48;12.18;;;41.80;26.70;;;;;;5063773;28;20201;-77
2021/06/04 09:36:14;;;;;;;29.27;25.77;;;42.00;26.70;;;;;;5044235;28;20172;-78
2021/06/04 09:38:43;;;;;;;14.05;12.95;;;41.40;27.00;;;;;;5043815;28;20166;-78
2021/06/04 09:41:27;;;;;;;93.13;85.43;;;40.80;27.50;;;;;;5045113;28;20209;-77
2021/06/04 09:44:17;;;;;;;19.65;17.98;;;39.70;28.90;;;;;;5057501;28;20158;-77
2021/06/04 09:46:53;;;;;;;14.55;13.38;;;39.20;29.20;;;;;;5068717;28;20199;-77
2021/06/04 09:49:26;;;;;;;14.85;13.38;;;38.30;29.90;;;;;;5050502;28;20204;-77
2021/06/04 09:51:57;;;;;;;19.13;17.30;;;37.30;31.50;;;;;;5052051;28;20174;-78
2021/06/04 09:54:30;;;;;;;16.03;14.50;;;37.00;32.20;;;;;;5050797;28;20454;-79
2021/06/04 09:57:11;;;;;;;14.63;13.10;;;37.20;31.80;;;;;;5047037;28;20384;-78
2021/06/04 09:59:38;;;;;;;16.73;14.63;;;38.00;29.80;;;;;;5046064;28;20439;-78
2021/06/04 10:02:31;;;;;;;12.73;11.23;;;38.60;29.60;;;;;;5059066;28;20539;-78
2021/06/04 10:05:24;;;;;;;14.23;12.88;;;39.70;27.80;;;;;;5042845;28;20612;-78
2021/06/04 10:07:59;;;;;;;14.45;13.15;;;39.80;27.20;;;;;;5042156;28;20336;-76
2021/06/04 10:10:29;;;;;;;15.88;13.88;;;39.40;28.10;;;;;;5042014;28;20192;-80
2021/06/04 10:13:00;;;;;;;13.82;12.52;;;39.50;28.20;;;;;;5042628;28;20256;-79
2021/06/04 10:15:39;;;;;;;14.70;13.38;;;40.20;27.80;;;;;;5056757;28;20699;-78
2021/06/04 10:18:31;;;;;;;12.30;11.25;;;40.80;27.00;;;;;;5041574;28;20169;-77
2021/06/04 10:21:18;;;;;;;13.95;12.68;;;40.40;27.10;;;;;;5039911;28;20182;-78
2021/06/04 10:23:49;;;;;;;15.27;13.50;;;40.90;27.10;;;;;;5040892;28;20185;-77
2021/06/04 10:26:33;;;;;;;16.23;14.63;;;41.20;26.90;;;;;;5044117;28;20181;-78
2021/06/04 10:29:13;;;;;;;16.85;15.32;;;40.70;26.90;;;;;;5044892;28;20321;-77
2021/06/04 10:31:54;;;;;;;13.20;11.98;;;39.90;27.80;;;;;;5042197;28;20260;-78
2021/06/04 10:34:43;;;;;;;12.77;11.68;;;40.00;27.90;;;;;;5044577;28;20193;-77
2021/06/04 10:37:14;;;;;;;14.13;12.73;;;40.70;27.00;;;;;;5042361;28;20208;-77
2021/06/04 10:39:48;;;;;;;18.80;14.00;;;41.00;26.70;;;;;;5057530;28;20487;-77
2021/06/04 10:42:18;;;;;;;15.90;14.40;;;40.30;26.90;;;;;;5042788;28;20182;-78
2021/06/04 10:45:19;;;;;;;15.47;14.07;;;39.50;27.30;;;;;;5044205;28;20204;-77
2021/06/04 10:48:07;;;;;;;15.87;14.33;;;38.40;28.60;;;;;;5049442;28;20451;-76
2021/06/04 10:51:00;;;;;;;15.93;13.50;;;37.10;29.90;;;;;;5041609;28;20504;-78
2021/06/04 10:53:53;;;;;;;13.53;12.13;;;36.20;31.60;;;;;;5043264;28;20838;-77
2021/06/04 10:56:45;;;;;;;13.17;11.77;;;35.50;32.60;;;;;;5042094;28;20386;-79
2021/06/04 10:59:22;;;;;;;13.80;11.30;;;34.90;33.00;;;;;;5044597;28;20409;-78
2021/06/04 11:01:56;;;;;;;13.30;11.40;;;34.40;34.20;;;;;;5044310;28;20409;-78
2021/06/04 11:04:49;;;;;;;12.83;11.53;;;33.70;35.00;;;;;;5044540;28;20464;-78
2021/06/04 11:07:38;;;;;;;13.83;10.90;;;33.00;36.60;;;;;;5043392;28;20477;-78
2021/06/04 11:10:12;;;;;;;15.87;12.77;;;32.80;37.20;;;;;;5045976;28;20478;-78
2021/06/04 11:12:59;;;;;;;12.97;10.10;;;32.60;37.00;;;;;;5045894;28;20431;-79
2021/06/04 11:15:49;;;;;;;15.23;12.00;;;32.10;38.40;;;;;;5049133;28;20404;-76
2021/06/04 11:18:33;;;;;;;13.90;12.20;;;32.20;38.30;;;;;;5047798;28;20408;-77
2021/06/04 11:21:01;;;;;;;14.83;11.20;;;32.10;39.20;;;;;;5047180;28;20597;-77
2021/06/04 11:23:42;;;;;;;16.33;13.20;;;32.10;39.10;;;;;;5042805;28;20915;-78
2021/06/04 11:29:00;;;;;;;11.80;9.90;;;32.30;38.30;;;;;;5070168;28;20822;-82
2021/06/04 11:31:48;;;;;;;12.80;10.93;;;32.40;38.10;;;;;;5069543;28;20877;-82
2021/06/04 11:34:40;;;;;;;21.90;16.63;;;32.60;37.90;;;;;;5050695;28;20447;-83
2021/06/04 11:37:09;;;;;;;17.23;9.77;;;32.70;37.70;;;;;;5044232;28;20436;-82
2021/06/04 11:39:39;;;;;;;16.03;10.43;;;32.40;37.10;;;;;;5044305;28;20380;-82
2021/06/04 11:42:09;;;;;;;12.20;11.10;;;31.90;37.80;;;;;;5045154;28;20419;-84
2021/06/04 11:44:46;;;;;;;11.53;10.43;;;31.60;38.70;;;;;;5044131;28;20436;-82
2021/06/04 11:47:11;;;;;;;12.93;10.80;;;31.40;39.30;;;;;;5027649;28;20452;-81
2021/06/04 11:49:55;;;;;;;13.43;11.30;;;31.30;39.40;;;;;;5052464;28;20405;-81
2021/06/04 11:52:44;;;;;;;12.73;11.50;;;31.10;39.60;;;;;;5053618;28;20288;-83
2021/06/04 11:55:17;;;;;;;17.50;11.70;;;30.80;40.80;;;;;;5071891;28;20778;-82
2021/06/04 11:57:50;;;;;;;20.63;16.30;;;30.90;41.00;;;;;;5064592;28;20443;-82
2021/06/04 12:00:25;;;;;;;12.93;10.80;;;30.80;41.20;;;;;;5048514;28;20393;-82
2021/06/04 12:03:09;;;;;;;15.23;11.57;;;30.80;41.50;;;;;;5060162;28;20435;-82
2021/06/04 12:05:46;;;;;;;12.73;10.83;;;30.90;41.00;;;;;;5045604;28;20383;-83
2021/06/04 12:08:33;;;;;;;11.43;10.33;;;30.90;40.40;;;;;;5028283;28;20646;-82
2021/06/04 12:11:07;;;;;;;13.67;11.00;;;30.60;40.50;;;;;;5045189;28;20432;-84
2021/06/04 12:13:49;;;;;;;11.97;10.73;;;30.50;41.10;;;;;;5025695;28;20449;-83
2021/06/04 12:16:22;;;;;;;13.87;10.67;;;30.20;41.00;;;;;;5026136;28;20413;-84
2021/06/04 12:19:26;;;;;;;26.47;12.17;;;30.10;41.70;;;;;;5044579;28;20423;-84
2021/06/04 12:21:57;;;;;;;13.47;11.13;;;29.90;41.60;;;;;;5042502;28;20440;-82
2021/06/04 12:24:29;;;;;;;12.33;11.07;;;29.70;42.20;;;;;;5043410;28;20395;-81
2021/06/04 12:27:13;;;;;;;11.57;9.87;;;29.60;42.10;;;;;;5043203;28;20791;-82
2021/06/04 12:29:45;;;;;;;22.07;11.27;;;29.50;42.50;;;;;;5025429;28;20435;-82
2021/06/04 12:32:48;;;;;;;11.20;10.17;;;29.40;42.70;;;;;;5042830;28;20413;-83
2021/06/04 12:35:38;;;;;;;13.83;10.43;;;29.40;43.10;;;;;;5024055;28;20413;-82
2021/06/04 12:38:25;;;;;;;11.87;10.40;;;29.50;42.40;;;;;;5044147;28;20920;-83
2021/06/04 12:40:53;;;;;;;14.40;13.00;;;29.50;42.90;;;;;;5024513;28;20463;-82
2021/06/04 12:43:25;;;;;;;12.03;9.13;;;29.60;42.90;;;;;;5042048;28;20432;-83
2021/06/04 12:46:02;;;;;;;13.40;12.00;;;29.70;42.50;;;;;;5024292;28;20427;-83
2021/06/04 12:48:34;;;;;;;12.30;10.73;;;29.70;42.60;;;;;;5048326;28;20463;-82
2021/06/04 12:51:08;;;;;;;27.63;22.40;;;29.60;43.20;;;;;;5030437;28;20413;-81
2021/06/04 12:53:37;;;;;;;15.73;11.17;;;29.70;43.10;;;;;;5033468;28;20488;-83
2021/06/04 12:56:41;;;;;;;14.40;12.57;;;29.80;43.20;;;;;;5043258;28;20413;-81
2021/06/04 12:59:14;;;;;;;15.63;10.50;;;29.90;43.00;;;;;;4995655;28;20411;-82
2021/06/04 13:02:05;;;;;;;11.23;10.10;;;30.10;42.20;;;;;;5045592;28;20459;-82
2021/06/04 13:04:35;;;;;;;16.40;11.17;;;30.20;41.50;;;;;;5046549;28;20490;-81
2021/06/04 13:07:03;;;;;;;11.70;10.50;;;30.40;41.70;;;;;;5038851;28;20408;-82
2021/06/04 13:09:36;;;;;;;10.80;9.70;;;30.60;41.50;;;;;;5040351;28;20408;-83
2021/06/04 13:12:20;;;;;;;12.27;10.20;;;30.90;40.40;;;;;;5039499;28;20412;-83